La rose des vents
Donnes mto: Semaine 10/04/23 - 16/04/23 (S 15)
Date Horaire Temp. E. Hum. E. P.atmo. Pluie Vent 1mn Direction Ensoleilleme Ev.Tr. Solaire P. de rose Temp au vent Rafales
10/04/2023 00:00 9,9 C 92 % 1019,9 hPa 0,0 mm 0,0 km/h (0 Bft) N 0,00 h 0,000 mm 0 W/m 8,7 C 9,9 C 0,0 km/h (0 Bft)
10/04/2023 01:00 9,5 C 92 % 1020,0 hPa 0,0 mm 0,0 km/h (0 Bft) N 0,00 h 0,000 mm 0 W/m 8,3 C 9,5 C 0,0 km/h (0 Bft)
10/04/2023 02:00 9,2 C 92 % 1020,0 hPa 0,0 mm 0,0 km/h (0 Bft) N 0,00 h 0,000 mm 0 W/m 8,0 C 9,2 C 0,0 km/h (0 Bft)
10/04/2023 03:00 8,8 C 91 % 1020,1 hPa 0,0 mm 0,0 km/h (0 Bft) N 0,00 h 0,000 mm 0 W/m 7,4 C 8,8 C 0,0 km/h (0 Bft)
10/04/2023 04:00 8,2 C 90 % 1020,0 hPa 0,0 mm 0,0 km/h (0 Bft) N 0,00 h 0,000 mm 0 W/m 6,7 C 8,2 C 0,0 km/h (0 Bft)
10/04/2023 05:00 7,8 C 91 % 1019,9 hPa 0,0 mm 0,0 km/h (0 Bft) N 0,00 h 0,000 mm 0 W/m 6,4 C 7,8 C 0,1 km/h (0 Bft)
10/04/2023 06:00 7,6 C 89 % 1020,3 hPa 0,0 mm 0,0 km/h (0 Bft) N 0,00 h 0,000 mm 6 W/m 5,9 C 7,6 C 0,0 km/h (0 Bft)
10/04/2023 07:00 8,1 C 87 % 1021,0 hPa 0,0 mm 0,0 km/h (0 Bft) N 0,03 h 0,000 mm 29 W/m 6,1 C 8,1 C 0,0 km/h (0 Bft)
10/04/2023 08:00 9,3 C 83 % 1021,4 hPa 0,0 mm 0,0 km/h (0 Bft) N 0,00 h 0,025 mm 86 W/m 6,7 C 9,3 C 0,0 km/h (0 Bft)
10/04/2023 09:00 11,7 C 78 % 1021,4 hPa 0,0 mm 0,0 km/h (0 Bft) N 0,57 h 0,051 mm 263 W/m 8,0 C 11,7 C 0,0 km/h (0 Bft)
10/04/2023 10:00 16,2 C 71 % 1021,7 hPa 0,0 mm 1,0 km/h (0 Bft) E 0,98 h 0,127 mm 511 W/m 10,8 C 16,2 C 3,7 km/h (1 Bft)
10/04/2023 11:00 18,1 C 64 % 1022,1 hPa 0,0 mm 3,4 km/h (1 Bft) E 0,98 h 0,279 mm 711 W/m 11,1 C 18,1 C 8,1 km/h (2 Bft)
10/04/2023 12:00 18,0 C 59 % 1022,2 hPa 0,0 mm 3,8 km/h (1 Bft) E 0,95 h 0,406 mm 763 W/m 10,0 C 18,0 C 9,5 km/h (2 Bft)
10/04/2023 13:00 17,8 C 62 % 1022,0 hPa 0,0 mm 2,9 km/h (1 Bft) E 0,35 h 0,457 mm 512 W/m 10,3 C 17,8 C 7,3 km/h (2 Bft)
10/04/2023 14:00 18,1 C 62 % 1021,7 hPa 0,0 mm 3,6 km/h (1 Bft) E 0,72 h 0,356 mm 645 W/m 10,7 C 18,1 C 9,2 km/h (2 Bft)
10/04/2023 15:00 17,1 C 64 % 1021,8 hPa 0,0 mm 2,5 km/h (1 Bft) E 0,30 h 0,381 mm 367 W/m 10,2 C 17,1 C 7,1 km/h (2 Bft)
10/04/2023 16:00 16,5 C 63 % 1021,5 hPa 0,0 mm 1,1 km/h (1 Bft) S-SO 0,00 h 0,229 mm 208 W/m 9,4 C 16,5 C 3,7 km/h (1 Bft)
10/04/2023 17:00 15,9 C 62 % 1021,3 hPa 0,0 mm 0,5 km/h (0 Bft) S 0,00 h 0,127 mm 196 W/m 8,5 C 15,9 C 2,1 km/h (1 Bft)
10/04/2023 18:00 15,9 C 66 % 1021,2 hPa 0,0 mm 0,1 km/h (0 Bft) S 0,00 h 0,102 mm 114 W/m 9,5 C 15,9 C 0,5 km/h (0 Bft)
10/04/2023 19:00 14,8 C 75 % 1020,9 hPa 0,0 mm 0,0 km/h (0 Bft) N 0,00 h 0,076 mm 22 W/m 10,4 C 14,8 C 0,1 km/h (0 Bft)
10/04/2023 20:00 13,9 C 79 % 1021,0 hPa 0,0 mm 0,0 km/h (0 Bft) N 0,00 h 0,025 mm 0 W/m 10,3 C 13,9 C 0,0 km/h (0 Bft)
10/04/2023 21:00 13,1 C 81 % 1021,0 hPa 0,0 mm 0,0 km/h (0 Bft) S 0,00 h 0,000 mm 0 W/m 9,8 C 13,1 C 0,3 km/h (0 Bft)
10/04/2023 22:00 12,7 C 79 % 1020,9 hPa 0,0 mm 0,1 km/h (0 Bft) S 0,00 h 0,025 mm 0 W/m 9,1 C 12,7 C 0,6 km/h (0 Bft)
10/04/2023 23:00 12,4 C 80 % 1020,6 hPa 0,0 mm 0,0 km/h (0 Bft) N 0,00 h 0,025 mm 0 W/m 9,0 C 12,4 C 0,0 km/h (0 Bft)
11/04/2023 00:00 12,1 C 81 % 1020,5 hPa 0,0 mm 0,2 km/h (0 Bft) S 0,00 h 0,025 mm 0 W/m 9,0 C 12,1 C 1,6 km/h (1 Bft)
11/04/2023 01:00 11,8 C 81 % 1020,0 hPa 0,0 mm 0,1 km/h (0 Bft) S 0,00 h 0,025 mm 0 W/m 8,8 C 11,8 C 0,6 km/h (0 Bft)
11/04/2023 02:00 11,0 C 82 % 1019,7 hPa 0,0 mm 0,0 km/h (0 Bft) N 0,00 h 0,025 mm 0 W/m 8,1 C 11,0 C 0,0 km/h (0 Bft)
11/04/2023 03:00 10,3 C 84 % 1019,2 hPa 0,0 mm 0,0 km/h (0 Bft) N 0,00 h 0,025 mm 0 W/m 7,7 C 10,3 C 0,0 km/h (0 Bft)
11/04/2023 04:00 9,8 C 86 % 1018,8 hPa 0,0 mm 0,0 km/h (0 Bft) N 0,00 h 0,000 mm 0 W/m 7,6 C 9,8 C 0,0 km/h (0 Bft)
11/04/2023 05:00 9,3 C 88 % 1018,1 hPa 0,0 mm 0,1 km/h (0 Bft) S-SO 0,00 h 0,000 mm 0 W/m 7,4 C 9,3 C 0,2 km/h (0 Bft)
11/04/2023 06:00 9,5 C 88 % 1017,5 hPa 0,0 mm 0,1 km/h (0 Bft) S-SO 0,00 h 0,000 mm 0 W/m 7,6 C 9,5 C 0,5 km/h (0 Bft)
11/04/2023 07:00 10,0 C 87 % 1017,0 hPa 0,0 mm 0,1 km/h (0 Bft) S-SO 0,00 h 0,000 mm 18 W/m 7,9 C 10,0 C 0,3 km/h (0 Bft)
11/04/2023 08:00 10,4 C 85 % 1016,9 hPa 0,0 mm 0,0 km/h (0 Bft) N 0,00 h 0,000 mm 89 W/m 8,0 C 10,4 C 0,0 km/h (0 Bft)
11/04/2023 09:00 12,1 C 81 % 1016,5 hPa 0,0 mm 0,0 km/h (0 Bft) N 0,28 h 0,051 mm 220 W/m 8,8 C 12,1 C 0,0 km/h (0 Bft)
11/04/2023 10:00 15,9 C 71 % 1016,0 hPa 0,0 mm 0,7 km/h (0 Bft) S 1,00 h 0,102 mm 522 W/m 10,6 C 15,9 C 2,0 km/h (1 Bft)
11/04/2023 11:00 18,0 C 64 % 1015,3 hPa 0,0 mm 1,2 km/h (1 Bft) S 1,00 h 0,279 mm 563 W/m 11,1 C 18,0 C 4,9 km/h (1 Bft)
11/04/2023 12:00 17,8 C 70 % 1014,5 hPa 0,0 mm 3,5 km/h (1 Bft) E 1,00 h 0,330 mm 686 W/m 12,2 C 17,8 C 8,6 km/h (2 Bft)
11/04/2023 13:00 18,1 C 68 % 1014,2 hPa 0,0 mm 3,8 km/h (1 Bft) E 1,00 h 0,381 mm 760 W/m 12,0 C 18,1 C 10,4 km/h (2 Bft)
11/04/2023 14:00 19,2 C 64 % 1013,6 hPa 0,0 mm 1,8 km/h (1 Bft) E 1,00 h 0,432 mm 746 W/m 12,2 C 19,2 C 6,3 km/h (2 Bft)
11/04/2023 15:00 18,9 C 63 % 1013,3 hPa 0,0 mm 2,5 km/h (1 Bft) E 1,00 h 0,432 mm 678 W/m 11,7 C 18,9 C 7,5 km/h (2 Bft)
11/04/2023 16:00 18,2 C 66 % 1013,0 hPa 0,0 mm 1,6 km/h (1 Bft) E 1,00 h 0,406 mm 523 W/m 11,7 C 18,2 C 6,5 km/h (2 Bft)
11/04/2023 17:00 18,0 C 70 % 1012,6 hPa 0,0 mm 1,3 km/h (1 Bft) E 1,00 h 0,305 mm 406 W/m 12,5 C 18,0 C 5,1 km/h (1 Bft)
11/04/2023 18:00 16,7 C 74 % 1012,3 hPa 0,0 mm 0,9 km/h (0 Bft) S 0,83 h 0,229 mm 203 W/m 12,1 C 16,7 C 3,4 km/h (1 Bft)
11/04/2023 19:00 14,3 C 83 % 1012,3 hPa 0,0 mm 1,6 km/h (1 Bft) S 0,00 h 0,127 mm 35 W/m 11,5 C 14,3 C 3,9 km/h (1 Bft)
11/04/2023 20:00 13,0 C 88 % 1012,4 hPa 0,0 mm 0,4 km/h (0 Bft) S 0,02 h 0,025 mm 6 W/m 11,0 C 13,0 C 0,9 km/h (0 Bft)
11/04/2023 21:00 12,4 C 89 % 1012,6 hPa 0,0 mm 0,0 km/h (0 Bft) N 0,00 h 0,000 mm 0 W/m 10,6 C 12,4 C 0,0 km/h (0 Bft)
11/04/2023 22:00 11,8 C 90 % 1012,5 hPa 0,0 mm 0,0 km/h (0 Bft) N 0,00 h 0,000 mm 0 W/m 10,3 C 11,8 C 0,0 km/h (0 Bft)
11/04/2023 23:00 11,4 C 91 % 1012,1 hPa 0,0 mm 0,0 km/h (0 Bft) N 0,00 h 0,000 mm 0 W/m 10,1 C 11,4 C 0,1 km/h (0 Bft)
12/04/2023 00:00 11,3 C 93 % 1012,0 hPa 0,0 mm 0,0 km/h (0 Bft) N 0,00 h 0,000 mm 0 W/m 10,2 C 11,3 C 0,0 km/h (0 Bft)
12/04/2023 01:00 11,6 C 93 % 1011,9 hPa 0,0 mm 0,0 km/h (0 Bft) N 0,00 h 0,000 mm 0 W/m 10,5 C 11,6 C 0,0 km/h (0 Bft)
12/04/2023 02:00 11,9 C 93 % 1011,2 hPa 0,0 mm 0,0 km/h (0 Bft) N 0,00 h 0,000 mm 0 W/m 10,8 C 11,9 C 0,0 km/h (0 Bft)
12/04/2023 03:00 12,0 C 92 % 1010,5 hPa 0,0 mm 0,0 km/h (0 Bft) N 0,00 h 0,000 mm 0 W/m 10,7 C 12,0 C 0,0 km/h (0 Bft)
12/04/2023 04:00 11,7 C 92 % 1009,9 hPa 0,0 mm 0,0 km/h (0 Bft) N 0,00 h 0,000 mm 0 W/m 10,5 C 11,7 C 0,0 km/h (0 Bft)
12/04/2023 05:00 11,4 C 93 % 1009,5 hPa 0,0 mm 0,0 km/h (0 Bft) N 0,00 h 0,000 mm 0 W/m 10,3 C 11,4 C 0,0 km/h (0 Bft)
12/04/2023 06:00 11,1 C 93 % 1008,9 hPa 0,0 mm 0,0 km/h (0 Bft) N 0,00 h 0,000 mm 0 W/m 10,0 C 11,1 C 0,0 km/h (0 Bft)
12/04/2023 07:00 10,7 C 93 % 1009,1 hPa 0,0 mm 0,0 km/h (0 Bft) N 0,00 h 0,000 mm 26 W/m 9,7 C 10,7 C 0,0 km/h (0 Bft)
12/04/2023 08:00 11,3 C 93 % 1009,4 hPa 0,0 mm 0,0 km/h (0 Bft) N 0,00 h 0,000 mm 90 W/m 10,3 C 11,3 C 0,0 km/h (0 Bft)
12/04/2023 09:00 13,6 C 87 % 1009,2 hPa 0,0 mm 0,1 km/h (0 Bft) S 0,53 h 0,051 mm 348 W/m 11,5 C 13,6 C 0,7 km/h (0 Bft)
12/04/2023 10:00 17,6 C 72 % 1008,8 hPa 0,0 mm 0,8 km/h (0 Bft) S 0,77 h 0,178 mm 588 W/m 12,5 C 17,6 C 2,5 km/h (1 Bft)
12/04/2023 11:00 18,9 C 68 % 1008,4 hPa 0,0 mm 4,1 km/h (1 Bft) E 1,00 h 0,330 mm 763 W/m 12,8 C 18,9 C 10,0 km/h (2 Bft)
12/04/2023 12:00 18,7 C 68 % 1008,2 hPa 0,0 mm 4,3 km/h (1 Bft) E-SE 0,55 h 0,432 mm 604 W/m 12,5 C 18,7 C 9,7 km/h (2 Bft)
12/04/2023 13:00 17,8 C 68 % 1008,0 hPa 0,0 mm 2,6 km/h (1 Bft) E 0,40 h 0,356 mm 496 W/m 11,8 C 17,8 C 7,4 km/h (2 Bft)
12/04/2023 14:00 19,6 C 61 % 1007,4 hPa 0,0 mm 3,4 km/h (1 Bft) E-SE 1,00 h 0,305 mm 810 W/m 11,9 C 19,6 C 8,7 km/h (2 Bft)
12/04/2023 15:00 20,1 C 59 % 1006,7 hPa 0,0 mm 2,7 km/h (1 Bft) E 1,00 h 0,483 mm 681 W/m 11,8 C 20,1 C 7,7 km/h (2 Bft)
12/04/2023 16:00 19,4 C 59 % 1006,1 hPa 0,0 mm 2,9 km/h (1 Bft) E 0,98 h 0,406 mm 562 W/m 11,3 C 19,4 C 7,6 km/h (2 Bft)
12/04/2023 17:00 19,6 C 58 % 1005,7 hPa 0,0 mm 1,4 km/h (1 Bft) E 0,93 h 0,330 mm 400 W/m 11,0 C 19,6 C 4,9 km/h (1 Bft)
12/04/2023 18:00 17,3 C 69 % 1005,5 hPa 0,0 mm 0,4 km/h (0 Bft) E 0,38 h 0,229 mm 138 W/m 11,5 C 17,3 C 1,9 km/h (1 Bft)
12/04/2023 19:00 15,1 C 82 % 1005,3 hPa 0,0 mm 0,0 km/h (0 Bft) E 0,00 h 0,076 mm 28 W/m 12,0 C 15,1 C 0,6 km/h (0 Bft)
12/04/2023 20:00 14,1 C 88 % 1005,0 hPa 0,0 mm 0,0 km/h (0 Bft) N 0,00 h 0,025 mm 0 W/m 12,1 C 14,1 C 0,0 km/h (0 Bft)
12/04/2023 21:00 13,7 C 90 % 1005,0 hPa 0,0 mm 0,0 km/h (0 Bft) N 0,00 h 0,000 mm 0 W/m 12,1 C 13,7 C 0,0 km/h (0 Bft)
12/04/2023 22:00 13,4 C 92 % 1004,9 hPa 0,8 mm 0,0 km/h (0 Bft) N 0,00 h 0,000 mm 0 W/m 12,0 C 13,4 C 0,0 km/h (0 Bft)
12/04/2023 23:00 13,0 C 94 % 1004,6 hPa 0,6 mm 0,0 km/h (0 Bft) N 0,00 h 0,000 mm 0 W/m 12,0 C 13,0 C 0,0 km/h (0 Bft)
13/04/2023 00:00 12,6 C 95 % 1003,6 hPa 0,0 mm 0,0 km/h (0 Bft) N 0,00 h 0,000 mm 0 W/m 11,8 C 12,6 C 0,0 km/h (0 Bft)
13/04/2023 01:00 12,3 C 95 % 1002,8 hPa 0,0 mm 0,0 km/h (0 Bft) N 0,00 h 0,000 mm 0 W/m 11,5 C 12,3 C 0,0 km/h (0 Bft)
13/04/2023 02:00 11,7 C 95 % 1001,8 hPa 0,2 mm 0,0 km/h (0 Bft) N 0,00 h 0,000 mm 0 W/m 11,0 C 11,7 C 0,0 km/h (0 Bft)
13/04/2023 03:00 10,6 C 95 % 1001,2 hPa 0,0 mm 0,3 km/h (0 Bft) E 0,00 h 0,000 mm 0 W/m 9,9 C 10,6 C 1,5 km/h (1 Bft)
13/04/2023 04:00 9,9 C 95 % 1001,0 hPa 0,0 mm 0,2 km/h (0 Bft) E 0,00 h 0,000 mm 0 W/m 9,2 C 9,9 C 0,9 km/h (0 Bft)
13/04/2023 05:00 9,8 C 96 % 1000,7 hPa 0,0 mm 1,3 km/h (1 Bft) NO 0,00 h 0,000 mm 0 W/m 9,2 C 9,8 C 3,6 km/h (1 Bft)
13/04/2023 06:00 9,0 C 94 % 1000,3 hPa 0,0 mm 1,0 km/h (0 Bft) NO 0,00 h 0,000 mm 5 W/m 8,2 C 9,0 C 3,3 km/h (1 Bft)
13/04/2023 07:00 8,3 C 83 % 1000,3 hPa 0,2 mm 1,7 km/h (1 Bft) NO 0,00 h 0,000 mm 16 W/m 5,6 C 8,2 C 4,6 km/h (1 Bft)
13/04/2023 08:00 9,3 C 82 % 1000,2 hPa 0,0 mm 0,1 km/h (0 Bft) O-NO 0,00 h 0,000 mm 58 W/m 6,4 C 9,3 C 0,4 km/h (0 Bft)
13/04/2023 09:00 12,3 C 71 % 1000,0 hPa 0,0 mm 0,0 km/h (0 Bft) N 0,82 h 0,025 mm 387 W/m 7,2 C 12,3 C 0,0 km/h (0 Bft)
13/04/2023 10:00 16,7 C 57 % 999,6 hPa 0,0 mm 0,6 km/h (0 Bft) NE 1,00 h 0,203 mm 596 W/m 8,1 C 16,7 C 1,9 km/h (1 Bft)
13/04/2023 11:00 18,5 C 33 % 998,8 hPa 0,0 mm 11,0 km/h (2 Bft) S-SO 1,00 h 0,330 mm 739 W/m 1,6 C 18,5 C 23,7 km/h (4 Bft)
13/04/2023 12:00 19,8 C 24 % 998,5 hPa 0,0 mm 9,7 km/h (2 Bft) O-NO 1,00 h 0,508 mm 835 W/m -1,6 C 19,8 C 22,0 km/h (4 Bft)
13/04/2023 13:00 20,0 C 21 % 998,2 hPa 0,0 mm 12,0 km/h (2 Bft) O-NO 1,00 h 0,584 mm 867 W/m -3,3 C 20,0 C 23,0 km/h (4 Bft)
13/04/2023 14:00 19,9 C 21 % 998,5 hPa 0,0 mm 9,9 km/h (2 Bft) O-NO 1,00 h 0,635 mm 828 W/m -3,1 C 19,9 C 22,0 km/h (4 Bft)
13/04/2023 15:00 19,8 C 21 % 998,2 hPa 0,0 mm 11,2 km/h (2 Bft) O-NO 1,00 h 0,584 mm 740 W/m -3,4 C 19,8 C 24,5 km/h (4 Bft)
13/04/2023 16:00 19,2 C 22 % 998,3 hPa 0,0 mm 11,4 km/h (2 Bft) O-NO 1,00 h 0,559 mm 631 W/m -2,8 C 19,2 C 24,8 km/h (4 Bft)
13/04/2023 17:00 18,4 C 24 % 999,0 hPa 0,0 mm 7,9 km/h (2 Bft) O-NO 0,82 h 0,483 mm 447 W/m -2,5 C 18,4 C 18,2 km/h (3 Bft)
13/04/2023 18:00 15,4 C 53 % 1001,1 hPa 0,0 mm 0,8 km/h (0 Bft) N-NE 0,58 h 0,330 mm 185 W/m 5,8 C 15,4 C 3,8 km/h (1 Bft)
13/04/2023 19:00 13,8 C 60 % 1002,4 hPa 0,0 mm 0,2 km/h (0 Bft) E 0,58 h 0,102 mm 71 W/m 6,1 C 13,8 C 1,2 km/h (1 Bft)
13/04/2023 20:00 11,7 C 67 % 1003,5 hPa 0,0 mm 1,5 km/h (1 Bft) E-SE 0,03 h 0,051 mm 8 W/m 5,8 C 11,7 C 3,8 km/h (1 Bft)
13/04/2023 21:00 10,3 C 72 % 1004,3 hPa 0,0 mm 1,4 km/h (1 Bft) E-SE 0,00 h 0,000 mm 0 W/m 5,5 C 10,3 C 2,7 km/h (1 Bft)
13/04/2023 22:00 10,4 C 50 % 1004,0 hPa 0,0 mm 6,5 km/h (2 Bft) S-SO 0,00 h 0,025 mm 0 W/m 0,2 C 10,3 C 11,9 km/h (2 Bft)
13/04/2023 23:00 11,0 C 37 % 1003,2 hPa 0,0 mm 11,7 km/h (2 Bft) S-SO 0,00 h 0,051 mm 0 W/m -3,3 C 11,0 C 18,5 km/h (3 Bft)
14/04/2023 00:00 10,8 C 35 % 1002,6 hPa 0,0 mm 7,0 km/h (2 Bft) S-SO 0,00 h 0,102 mm 0 W/m -3,9 C 10,8 C 12,3 km/h (3 Bft)
14/04/2023 01:00 10,4 C 34 % 1002,2 hPa 0,0 mm 2,6 km/h (1 Bft) S 0,00 h 0,076 mm 0 W/m -4,8 C 10,4 C 5,3 km/h (1 Bft)
14/04/2023 02:00 11,4 C 28 % 1001,9 hPa 0,0 mm 2,4 km/h (1 Bft) SE 0,00 h 0,051 mm 0 W/m -6,6 C 11,4 C 5,3 km/h (1 Bft)
14/04/2023 03:00 10,1 C 32 % 1002,2 hPa 0,0 mm 0,5 km/h (0 Bft) SE 0,00 h 0,076 mm 0 W/m -6,0 C 10,1 C 1,4 km/h (1 Bft)
14/04/2023 04:00 8,9 C 35 % 1002,4 hPa 0,0 mm 0,2 km/h (0 Bft) SE 0,00 h 0,051 mm 0 W/m -5,8 C 8,9 C 0,6 km/h (0 Bft)
14/04/2023 05:00 7,9 C 39 % 1002,6 hPa 0,0 mm 0,0 km/h (0 Bft) N 0,00 h 0,051 mm 0 W/m -5,2 C 7,9 C 0,1 km/h (0 Bft)
14/04/2023 06:00 7,3 C 41 % 1003,1 hPa 0,0 mm 0,0 km/h (0 Bft) SE 0,00 h 0,051 mm 6 W/m -5,2 C 7,3 C 0,3 km/h (0 Bft)
14/04/2023 07:00 7,6 C 40 % 1003,7 hPa 0,0 mm 0,1 km/h (0 Bft) SE 0,02 h 0,000 mm 18 W/m -5,1 C 7,6 C 0,4 km/h (0 Bft)
14/04/2023 08:00 9,6 C 38 % 1004,2 hPa 0,0 mm 0,0 km/h (0 Bft) N 0,00 h 0,025 mm 30 W/m -3,9 C 9,6 C 0,0 km/h (0 Bft)
14/04/2023 09:00 13,0 C 34 % 1004,6 hPa 0,0 mm 0,6 km/h (0 Bft) SE 0,82 h 0,025 mm 398 W/m -2,5 C 13,0 C 2,3 km/h (1 Bft)
14/04/2023 10:00 16,6 C 29 % 1004,7 hPa 0,0 mm 1,5 km/h (1 Bft) S 1,00 h 0,203 mm 616 W/m -1,6 C 16,6 C 4,4 km/h (1 Bft)
14/04/2023 11:00 18,9 C 27 % 1005,0 hPa 0,0 mm 3,4 km/h (1 Bft) S 1,00 h 0,356 mm 744 W/m -0,8 C 18,9 C 8,2 km/h (2 Bft)
14/04/2023 12:00 20,1 C 21 % 1004,6 hPa 0,0 mm 3,5 km/h (1 Bft) S 1,00 h 0,457 mm 829 W/m -2,9 C 20,1 C 8,4 km/h (2 Bft)
14/04/2023 13:00 21,0 C 21 % 1003,9 hPa 0,0 mm 3,9 km/h (1 Bft) E 1,00 h 0,533 mm 854 W/m -2,4 C 21,0 C 10,3 km/h (2 Bft)
14/04/2023 14:00 21,6 C 25 % 1003,8 hPa 0,0 mm 2,7 km/h (1 Bft) E 1,00 h 0,559 mm 823 W/m 0,8 C 21,6 C 8,3 km/h (2 Bft)
14/04/2023 15:00 22,1 C 30 % 1003,1 hPa 0,0 mm 0,7 km/h (0 Bft) N-NE 1,00 h 0,533 mm 740 W/m 3,4 C 22,1 C 4,3 km/h (1 Bft)
14/04/2023 16:00 21,7 C 31 % 1002,3 hPa 0,0 mm 1,0 km/h (0 Bft) N-NE 1,00 h 0,457 mm 591 W/m 4,0 C 21,7 C 4,4 km/h (1 Bft)
14/04/2023 17:00 20,6 C 37 % 1001,9 hPa 0,0 mm 0,4 km/h (0 Bft) E-SE 0,87 h 0,381 mm 369 W/m 5,3 C 20,6 C 2,1 km/h (1 Bft)
14/04/2023 18:00 18,3 C 42 % 1001,4 hPa 0,0 mm 4,3 km/h (1 Bft) E-SE 0,67 h 0,229 mm 179 W/m 4,9 C 18,3 C 10,3 km/h (2 Bft)
14/04/2023 19:00 17,0 C 37 % 1001,4 hPa 0,0 mm 13,7 km/h (3 Bft) S-SO 0,00 h 0,152 mm 36 W/m 2,0 C 17,0 C 25,7 km/h (4 Bft)
14/04/2023 20:00 15,5 C 42 % 1001,6 hPa 0,0 mm 15,1 km/h (3 Bft) O-SO 0,00 h 0,127 mm 5 W/m 2,6 C 15,5 C 28,2 km/h (4 Bft)
14/04/2023 21:00 13,9 C 51 % 1002,3 hPa 0,0 mm 16,6 km/h (3 Bft) O-SO 0,00 h 0,102 mm 0 W/m 4,0 C 13,9 C 28,7 km/h (4 Bft)
14/04/2023 22:00 13,2 C 55 % 1002,6 hPa 0,0 mm 14,9 km/h (3 Bft) O-SO 0,00 h 0,102 mm 0 W/m 4,5 C 13,2 C 25,9 km/h (4 Bft)
14/04/2023 23:00 13,3 C 55 % 1002,7 hPa 0,0 mm 11,4 km/h (2 Bft) O-SO 0,00 h 0,102 mm 0 W/m 4,5 C 13,3 C 21,3 km/h (4 Bft)
15/04/2023 00:00 13,8 C 55 % 1002,0 hPa 0,0 mm 8,3 km/h (2 Bft) O-SO 0,00 h 0,076 mm 0 W/m 4,9 C 13,8 C 15,9 km/h (3 Bft)
15/04/2023 01:00 13,1 C 67 % 1002,1 hPa 0,0 mm 1,3 km/h (1 Bft) N-NE 0,00 h 0,076 mm 0 W/m 7,1 C 13,1 C 4,4 km/h (1 Bft)
15/04/2023 02:00 12,7 C 79 % 1002,1 hPa 0,0 mm 1,0 km/h (0 Bft) E 0,00 h 0,025 mm 0 W/m 9,2 C 12,7 C 2,8 km/h (1 Bft)
15/04/2023 03:00 12,0 C 80 % 1002,2 hPa 0,0 mm 0,0 km/h (0 Bft) N 0,00 h 0,025 mm 0 W/m 8,7 C 12,0 C 0,1 km/h (0 Bft)
15/04/2023 04:00 11,3 C 83 % 1002,3 hPa 0,0 mm 0,0 km/h (0 Bft) E 0,00 h 0,025 mm 0 W/m 8,4 C 11,3 C 0,1 km/h (0 Bft)
15/04/2023 05:00 10,6 C 86 % 1002,3 hPa 0,0 mm 0,6 km/h (0 Bft) E 0,00 h 0,025 mm 0 W/m 8,4 C 10,6 C 1,8 km/h (1 Bft)
15/04/2023 06:00 10,1 C 88 % 1002,6 hPa 0,0 mm 0,8 km/h (0 Bft) E 0,00 h 0,000 mm 6 W/m 8,2 C 10,1 C 2,2 km/h (1 Bft)
15/04/2023 07:00 10,0 C 89 % 1003,1 hPa 0,0 mm 0,0 km/h (0 Bft) E 0,00 h 0,000 mm 20 W/m 8,2 C 10,0 C 0,6 km/h (0 Bft)
15/04/2023 08:00 11,0 C 88 % 1003,7 hPa 0,0 mm 0,0 km/h (0 Bft) N 0,00 h 0,000 mm 42 W/m 9,0 C 11,0 C 0,0 km/h (0 Bft)
15/04/2023 09:00 14,2 C 78 % 1004,0 hPa 0,0 mm 0,8 km/h (0 Bft) S-SO 0,83 h 0,025 mm 381 W/m 10,4 C 14,2 C 1,9 km/h (1 Bft)
15/04/2023 10:00 17,4 C 62 % 1004,1 hPa 0,0 mm 2,7 km/h (1 Bft) E 0,95 h 0,203 mm 589 W/m 10,1 C 17,4 C 7,4 km/h (2 Bft)
15/04/2023 11:00 17,8 C 64 % 1004,2 hPa 0,0 mm 4,4 km/h (1 Bft) E 0,93 h 0,330 mm 736 W/m 10,8 C 17,8 C 11,0 km/h (2 Bft)
15/04/2023 12:00 18,7 C 61 % 1003,5 hPa 0,0 mm 3,7 km/h (1 Bft) S 0,73 h 0,406 mm 739 W/m 10,9 C 18,7 C 9,3 km/h (2 Bft)
15/04/2023 13:00 16,6 C 68 % 1002,7 hPa 0,0 mm 2,6 km/h (1 Bft) E 0,17 h 0,406 mm 308 W/m 10,6 C 16,6 C 6,9 km/h (2 Bft)
15/04/2023 14:00 13,0 C 90 % 1002,7 hPa 0,6 mm 2,3 km/h (1 Bft) E 0,00 h 0,152 mm 56 W/m 11,4 C 13,0 C 6,0 km/h (2 Bft)
15/04/2023 15:00 12,3 C 94 % 1003,3 hPa 5,2 mm 1,0 km/h (0 Bft) N-NE 0,00 h 0,025 mm 19 W/m 11,3 C 12,3 C 3,1 km/h (1 Bft)
15/04/2023 16:00 10,7 C 93 % 1004,4 hPa 3,6 mm 2,3 km/h (1 Bft) NO 0,00 h 0,000 mm 29 W/m 9,5 C 10,6 C 5,4 km/h (1 Bft)
15/04/2023 17:00 9,0 C 92 % 1004,1 hPa 0,4 mm 7,2 km/h (2 Bft) NO 0,00 h 0,025 mm 96 W/m 7,8 C 8,0 C 13,8 km/h (3 Bft)
15/04/2023 18:00 10,0 C 87 % 1004,2 hPa 0,2 mm 5,8 km/h (2 Bft) NO 0,00 h 0,051 mm 98 W/m 8,0 C 9,5 C 10,2 km/h (2 Bft)
15/04/2023 19:00 10,8 C 82 % 1005,3 hPa 0,2 mm 0,9 km/h (0 Bft) NO 0,12 h 0,051 mm 35 W/m 7,8 C 10,8 C 2,0 km/h (1 Bft)
15/04/2023 20:00 10,6 C 83 % 1005,6 hPa 0,0 mm 1,4 km/h (1 Bft) SO 0,10 h 0,025 mm 11 W/m 7,7 C 10,6 C 2,7 km/h (1 Bft)
15/04/2023 21:00 9,7 C 83 % 1006,6 hPa 0,0 mm 2,8 km/h (1 Bft) O-NO 0,00 h 0,000 mm 0 W/m 7,0 C 9,6 C 4,6 km/h (1 Bft)
15/04/2023 22:00 9,3 C 81 % 1007,1 hPa 0,0 mm 1,6 km/h (1 Bft) O-NO 0,00 h 0,025 mm 0 W/m 6,2 C 9,2 C 3,0 km/h (1 Bft)
15/04/2023 23:00 9,1 C 77 % 1007,6 hPa 0,0 mm 0,2 km/h (0 Bft) O-NO 0,00 h 0,025 mm 0 W/m 5,2 C 9,1 C 1,0 km/h (0 Bft)
16/04/2023 00:00 9,2 C 75 % 1008,2 hPa 0,0 mm 1,4 km/h (1 Bft) O-NO 0,00 h 0,025 mm 0 W/m 5,1 C 9,1 C 1,9 km/h (1 Bft)
16/04/2023 01:00 9,4 C 71 % 1008,9 hPa 0,0 mm 0,9 km/h (0 Bft) O-NO 0,00 h 0,025 mm 0 W/m 4,3 C 9,3 C 1,7 km/h (1 Bft)
16/04/2023 02:00 9,6 C 67 % 1009,5 hPa 0,0 mm 0,0 km/h (0 Bft) N 0,00 h 0,025 mm 0 W/m 3,9 C 9,6 C 0,0 km/h (0 Bft)
16/04/2023 03:00 9,5 C 66 % 1009,5 hPa 0,0 mm 0,4 km/h (0 Bft) O-NO 0,00 h 0,025 mm 0 W/m 3,5 C 9,5 C 1,1 km/h (1 Bft)
16/04/2023 04:00 8,7 C 67 % 1009,9 hPa 0,0 mm 0,7 km/h (0 Bft) O-NO 0,00 h 0,025 mm 0 W/m 3,0 C 8,7 C 1,8 km/h (1 Bft)
16/04/2023 05:00 9,0 C 63 % 1009,9 hPa 0,0 mm 1,4 km/h (1 Bft) O-NO 0,00 h 0,025 mm 0 W/m 2,4 C 9,0 C 2,7 km/h (1 Bft)
16/04/2023 06:00 9,1 C 63 % 1009,7 hPa 0,0 mm 0,8 km/h (0 Bft) O-NO 0,00 h 0,025 mm 6 W/m 2,4 C 9,1 C 1,8 km/h (1 Bft)
16/04/2023 07:00 8,8 C 65 % 1010,2 hPa 0,0 mm 0,2 km/h (0 Bft) O-NO 0,00 h 0,000 mm 20 W/m 2,5 C 8,8 C 0,7 km/h (0 Bft)
16/04/2023 08:00 10,2 C 62 % 1010,7 hPa 0,0 mm 0,0 km/h (0 Bft) N 0,00 h 0,025 mm 42 W/m 3,3 C 10,2 C 0,0 km/h (0 Bft)
16/04/2023 09:00 14,4 C 56 % 1010,8 hPa 0,0 mm 0,0 km/h (0 Bft) N 0,77 h 0,025 mm 382 W/m 5,8 C 14,4 C 0,0 km/h (0 Bft)
16/04/2023 10:00 18,3 C 43 % 1010,9 hPa 0,0 mm 0,9 km/h (0 Bft) O 1,00 h 0,203 mm 606 W/m 5,5 C 18,3 C 2,1 km/h (1 Bft)
16/04/2023 11:00 20,5 C 39 % 1011,0 hPa 0,0 mm 2,5 km/h (1 Bft) E-SE 1,00 h 0,356 mm 731 W/m 6,2 C 20,5 C 5,8 km/h (2 Bft)
16/04/2023 12:00 20,7 C 43 % 1011,0 hPa 0,0 mm 5,2 km/h (1 Bft) E 1,00 h 0,457 mm 810 W/m 7,7 C 20,7 C 10,8 km/h (2 Bft)
16/04/2023 13:00 20,2 C 44 % 1011,1 hPa 0,0 mm 5,8 km/h (1 Bft) E 1,00 h 0,508 mm 839 W/m 7,4 C 20,2 C 11,4 km/h (2 Bft)
16/04/2023 14:00 19,8 C 45 % 1011,2 hPa 0,0 mm 3,9 km/h (1 Bft) E 1,00 h 0,533 mm 812 W/m 7,5 C 19,8 C 8,3 km/h (2 Bft)
16/04/2023 15:00 19,8 C 48 % 1011,1 hPa 0,0 mm 3,4 km/h (1 Bft) E 1,00 h 0,508 mm 727 W/m 8,5 C 19,8 C 8,0 km/h (2 Bft)
16/04/2023 16:00 19,7 C 52 % 1010,9 hPa 0,0 mm 2,2 km/h (1 Bft) E 1,00 h 0,432 mm 597 W/m 9,5 C 19,7 C 6,0 km/h (2 Bft)
16/04/2023 17:00 19,3 C 53 % 1010,9 hPa 0,0 mm 1,1 km/h (0 Bft) E-SE 1,00 h 0,356 mm 435 W/m 9,4 C 19,3 C 3,4 km/h (1 Bft)
16/04/2023 18:00 18,2 C 54 % 1011,0 hPa 0,0 mm 0,2 km/h (0 Bft) E-SE 0,65 h 0,254 mm 241 W/m 8,8 C 18,2 C 1,2 km/h (1 Bft)
16/04/2023 19:00 16,2 C 64 % 1011,2 hPa 0,0 mm 0,0 km/h (0 Bft) N 0,00 h 0,127 mm 30 W/m 9,2 C 16,2 C 0,0 km/h (0 Bft)
16/04/2023 20:00 14,3 C 74 % 1011,4 hPa 0,0 mm 0,0 km/h (0 Bft) N 0,00 h 0,025 mm 5 W/m 9,6 C 14,3 C 0,0 km/h (0 Bft)
16/04/2023 21:00 13,5 C 75 % 1011,6 hPa 0,0 mm 0,3 km/h (0 Bft) E-SE 0,00 h 0,000 mm 0 W/m 9,1 C 13,5 C 1,1 km/h (1 Bft)
16/04/2023 22:00 13,5 C 74 % 1011,5 hPa 0,0 mm 0,1 km/h (0 Bft) E-SE 0,00 h 0,025 mm 0 W/m 8,9 C 13,5 C 0,4 km/h (0 Bft)
16/04/2023 23:00 13,1 C 74 % 1011,6 hPa 0,0 mm 0,7 km/h (0 Bft) E-SE 0,00 h 0,025 mm 0 W/m 8,5 C 13,1 C 2,2 km/h (1 Bft)
Min-Date _ 14/04/23 13/04/23 13/04/23 - 10/04/23 - - - - 14/04/23 15/04/23 10/04/23
_ Min-Heure 06:48 13:52 13:30 - 00:00 - - - - 02:20 17:18 00:00
Minimum _ 7,1 C 18 % 998,1 hPa - 0,0 km/h (0 Bft) - - - - -8,3 C 6,8 C 0,0 km/h (0 Bft)
Max-Date _ 14/04/23 13/04/23 10/04/23 15/04/23 14/04/23 - 10/04/23 13/04/23 15/04/23 12/04/23 14/04/23 14/04/23
_ Max-Heure 15:47 04:40 12:00 15:20 21:20 - 07:08 14:00 13:04 11:38 15:47 20:56
Maximum _ 22,3 C 96 % 1022,3 hPa 5,2 mm 27,4 km/h
O-SO (4 Bft)
- 0,02 h 0,635 mm 1132 W/m 13,2 C 22,3 C 48,3 km/h
O-SO (6 Bft)
Moyenne _ 13,8 C 68 % 1008,9 hPa #12,0 mm 2,1 km/h (1 Bft) E #54:01 h #24,397 mm 371 W/m 6,9 C 13,8 C 4,8 km/h (1 Bft)
Roquefort les pins